Time;durP1;ratioP1;P1;durP2;ratioP2;P2;SDS_P1;SDS_P2;PMS_P1;PMS_P2;Temp;Humidity;BMP_temperature;BMP_pressure;BME280_temperature;BME280_humidity;BME280_pressure;Samples;Min_cycle;Max_cycle;Signal;HPM_P1;HPM_P2
2023/12/24 00:01:13;;;;;;;0.47;0.47;;;13.10;72.30;;;;;;5072966;28;20032;-70
2023/12/24 00:03:38;;;;;;;0.50;0.50;;;13.10;72.30;;;;;;5073669;28;20032;-70
2023/12/24 00:06:05;;;;;;;0.50;0.50;;;13.10;72.40;;;;;;5073095;28;20096;-70
2023/12/24 00:08:31;;;;;;;0.70;0.70;;;13.10;72.40;;;;;;5072812;28;20066;-70
2023/12/24 00:10:57;;;;;;;0.60;0.60;;;13.10;72.30;;;;;;5072967;28;20021;-70
2023/12/24 00:13:23;;;;;;;0.50;0.50;;;13.10;72.40;;;;;;5073072;28;20029;-70
2023/12/24 00:15:49;;;;;;;1.95;1.40;;;13.10;72.30;;;;;;5072941;28;20504;-69
2023/12/24 00:18:14;;;;;;;0.50;0.50;;;13.10;72.30;;;;;;5072803;28;20039;-68
2023/12/24 00:20:40;;;;;;;0.50;0.50;;;13.10;72.30;;;;;;5072846;28;20446;-70
2023/12/24 00:23:06;;;;;;;0.40;0.40;;;13.10;72.30;;;;;;5072994;28;20060;-69
2023/12/24 00:25:32;;;;;;;0.50;0.50;;;13.10;72.30;;;;;;5072727;28;20499;-69
2023/12/24 00:28:00;;;;;;;0.70;0.70;;;13.10;72.30;;;;;;5072719;28;20033;-68
2023/12/24 00:30:29;;;;;;;0.40;0.40;;;13.10;72.40;;;;;;5072680;28;20191;-69
2023/12/24 00:32:55;;;;;;;0.40;0.40;;;13.10;72.30;;;;;;5072768;28;20067;-69
2023/12/24 00:35:21;;;;;;;0.75;0.75;;;13.00;72.30;;;;;;5072544;28;20423;-69
2023/12/24 00:37:50;;;;;;;0.55;0.55;;;13.10;72.30;;;;;;5072013;28;20036;-69
2023/12/24 00:40:19;;;;;;;0.88;0.88;;;13.10;72.30;;;;;;5071995;28;20035;-69
2023/12/24 00:42:45;;;;;;;0.50;0.50;;;13.00;72.40;;;;;;5072293;28;20032;-69
2023/12/24 00:45:11;;;;;;;0.52;0.52;;;13.00;72.40;;;;;;5072386;28;20443;-70
2023/12/24 00:47:38;;;;;;;0.45;0.45;;;13.00;72.40;;;;;;5072626;28;20025;-69
2023/12/24 00:50:05;;;;;;;0.60;0.60;;;13.10;72.30;;;;;;5072381;28;20016;-68
2023/12/24 00:52:31;;;;;;;0.70;0.70;;;13.00;72.30;;;;;;5072415;28;20488;-69
2023/12/24 00:54:56;;;;;;;0.50;0.50;;;13.00;72.30;;;;;;5071985;28;20032;-69
2023/12/24 00:57:22;;;;;;;0.50;0.50;;;13.00;72.30;;;;;;5071923;28;20067;-69
2023/12/24 00:59:47;;;;;;;0.75;0.75;;;13.00;72.30;;;;;;5072226;28;20033;-69
2023/12/24 01:02:13;;;;;;;0.65;0.65;;;13.00;72.20;;;;;;5070367;28;20036;-69
2023/12/24 01:04:38;;;;;;;0.45;0.45;;;13.00;72.30;;;;;;5072261;28;20025;-69
2023/12/24 01:07:04;;;;;;;0.50;0.50;;;13.00;72.30;;;;;;5071865;28;20488;-69
2023/12/24 01:09:29;;;;;;;0.50;0.50;;;13.00;72.30;;;;;;5072440;28;20037;-69
2023/12/24 01:11:55;;;;;;;0.82;0.82;;;13.00;72.30;;;;;;5071818;28;20039;-69
2023/12/24 01:14:21;;;;;;;0.40;0.40;;;13.00;72.30;;;;;;5072151;28;20035;-69
2023/12/24 01:16:46;;;;;;;0.80;0.80;;;13.00;72.40;;;;;;5071836;28;20103;-68
2023/12/24 01:19:13;;;;;;;0.50;0.50;;;13.00;72.30;;;;;;5070445;28;20071;-69
2023/12/24 01:21:38;;;;;;;0.40;0.40;;;13.00;72.40;;;;;;5071915;28;20123;-68
2023/12/24 01:24:04;;;;;;;0.43;0.43;;;13.00;72.30;;;;;;5072055;28;20467;-69
2023/12/24 01:26:30;;;;;;;0.50;0.50;;;13.00;72.40;;;;;;5071500;28;20048;-69
2023/12/24 01:28:55;;;;;;;0.52;0.52;;;13.00;72.50;;;;;;5071858;28;20025;-69
2023/12/24 01:31:21;;;;;;;0.60;0.60;;;13.00;72.50;;;;;;5071410;28;20047;-68
2023/12/24 01:33:46;;;;;;;1.13;1.02;;;13.00;72.50;;;;;;5071883;28;20032;-69
2023/12/24 01:36:12;;;;;;;0.40;0.40;;;13.00;72.40;;;;;;5071342;28;20029;-70
2023/12/24 01:38:37;;;;;;;0.40;0.40;;;13.00;72.40;;;;;;5070338;28;20035;-68
2023/12/24 01:41:03;;;;;;;0.40;0.40;;;13.00;72.40;;;;;;5071199;28;20031;-69
2023/12/24 01:43:28;;;;;;;0.43;0.43;;;13.00;72.50;;;;;;5071769;28;20028;-68
2023/12/24 01:45:54;;;;;;;0.45;0.45;;;13.00;72.50;;;;;;5071349;28;20095;-68
2023/12/24 01:48:21;;;;;;;0.50;0.50;;;13.00;72.50;;;;;;5071361;28;20101;-69
2023/12/24 01:50:48;;;;;;;0.43;0.43;;;13.00;72.50;;;;;;5071089;28;20146;-69
2023/12/24 01:53:16;;;;;;;0.45;0.45;;;13.00;72.50;;;;;;5071241;28;20464;-69
2023/12/24 01:55:42;;;;;;;0.40;0.40;;;13.00;72.40;;;;;;5071416;28;20046;-69
2023/12/24 01:58:08;;;;;;;0.50;0.50;;;13.00;72.40;;;;;;5071705;28;20028;-69
2023/12/24 02:00:34;;;;;;;0.43;0.43;;;13.00;72.50;;;;;;5071195;28;20027;-69
2023/12/24 02:03:01;;;;;;;0.80;0.80;;;13.10;72.50;;;;;;5071212;28;20502;-69
2023/12/24 02:05:27;;;;;;;0.50;0.50;;;13.00;72.50;;;;;;5071171;28;20491;-69
2023/12/24 02:07:54;;;;;;;0.40;0.40;;;13.10;72.50;;;;;;5071085;28;20032;-69
2023/12/24 02:10:20;;;;;;;3.92;0.80;;;13.00;72.50;;;;;;5071194;28;20025;-69
2023/12/24 02:12:46;;;;;;;0.70;0.70;;;13.10;72.50;;;;;;5071174;28;20165;-69
2023/12/24 02:15:12;;;;;;;0.40;0.40;;;13.10;72.40;;;;;;5071338;28;20039;-69
2023/12/24 02:17:39;;;;;;;0.63;0.63;;;13.10;72.40;;;;;;5071276;28;20453;-69
2023/12/24 02:20:05;;;;;;;0.45;0.45;;;13.10;72.50;;;;;;5071129;28;20114;-69
2023/12/24 02:22:31;;;;;;;0.47;0.47;;;13.10;72.50;;;;;;5070865;28;20098;-69
2023/12/24 02:24:57;;;;;;;0.40;0.40;;;13.10;72.50;;;;;;5071034;28;20024;-69
2023/12/24 02:27:35;;;;;;;0.40;0.40;;;13.10;72.50;;;;;;5070902;28;20032;-69
2023/12/24 02:30:23;;;;;;;0.50;0.50;;;13.10;72.50;;;;;;5071310;28;20031;-69
2023/12/24 02:32:53;;;;;;;0.60;0.60;;;13.10;72.50;;;;;;5071081;28;20033;-69
2023/12/24 02:35:20;;;;;;;0.40;0.40;;;13.10;72.60;;;;;;5071050;28;20491;-68
2023/12/24 02:37:45;;;;;;;0.88;0.68;;;13.10;72.70;;;;;;5070915;28;20041;-68
2023/12/24 02:40:11;;;;;;;0.55;0.55;;;13.10;72.60;;;;;;5071030;28;20474;-69
2023/12/24 02:42:37;;;;;;;0.40;0.40;;;13.10;72.60;;;;;;5070716;28;20043;-68
2023/12/24 02:45:02;;;;;;;0.40;0.40;;;13.10;72.60;;;;;;5070889;28;20024;-69
2023/12/24 02:47:28;;;;;;;0.50;0.50;;;13.10;72.60;;;;;;5070582;28;20040;-68
2023/12/24 02:49:53;;;;;;;0.52;0.52;;;13.10;72.60;;;;;;5070780;28;20531;-69
2023/12/24 02:52:19;;;;;;;0.65;0.65;;;13.20;72.60;;;;;;5070503;28;20032;-69
2023/12/24 02:54:44;;;;;;;0.52;0.52;;;13.20;72.60;;;;;;5069377;28;20131;-69
2023/12/24 02:57:10;;;;;;;0.50;0.50;;;13.20;72.60;;;;;;5070826;28;20031;-69
2023/12/24 02:59:35;;;;;;;0.52;0.52;;;13.20;72.60;;;;;;5069654;28;20032;-69
2023/12/24 03:02:01;;;;;;;0.70;0.70;;;13.20;72.50;;;;;;5053859;28;20027;-69
2023/12/24 03:04:27;;;;;;;0.40;0.40;;;13.20;72.50;;;;;;5074579;28;20460;-69
2023/12/24 03:06:52;;;;;;;0.50;0.50;;;13.30;72.40;;;;;;5074192;28;20050;-68
2023/12/24 03:09:18;;;;;;;0.55;0.55;;;13.30;72.40;;;;;;5074598;28;20025;-69
2023/12/24 03:11:44;;;;;;;1.13;1.02;;;13.30;72.40;;;;;;5074109;28;20047;-69
2023/12/24 03:14:09;;;;;;;0.50;0.50;;;13.30;72.50;;;;;;5074686;28;20425;-68
2023/12/24 03:16:35;;;;;;;0.40;0.40;;;13.40;72.40;;;;;;5073927;28;20474;-69
2023/12/24 03:19:00;;;;;;;0.70;0.70;;;13.40;72.40;;;;;;5074288;28;20043;-69
2023/12/24 03:21:26;;;;;;;0.47;0.47;;;13.50;72.30;;;;;;5073699;28;20047;-68
2023/12/24 03:23:51;;;;;;;0.40;0.40;;;13.50;72.40;;;;;;5074264;28;20028;-68
2023/12/24 03:26:21;;;;;;;0.65;0.65;;;13.50;72.40;;;;;;5073763;28;20036;-69
2023/12/24 03:28:51;;;;;;;0.50;0.50;;;13.50;72.40;;;;;;5074051;28;20074;-69
2023/12/24 03:31:17;;;;;;;0.63;0.63;;;13.60;72.40;;;;;;5073659;28;20597;-68
2023/12/24 03:33:43;;;;;;;0.52;0.52;;;13.60;72.30;;;;;;5074245;28;20464;-69
2023/12/24 03:36:09;;;;;;;0.52;0.52;;;13.60;72.20;;;;;;5073977;28;20028;-69
2023/12/24 03:38:35;;;;;;;0.70;0.68;;;13.70;72.20;;;;;;5073687;28;20040;-69
2023/12/24 03:41:01;;;;;;;0.55;0.55;;;13.60;72.00;;;;;;5055657;28;20471;-69
2023/12/24 03:43:27;;;;;;;0.75;0.75;;;13.50;72.00;;;;;;5073626;28;20039;-69
2023/12/24 03:45:52;;;;;;;0.50;0.50;;;13.50;72.00;;;;;;5073547;28;20021;-69
2023/12/24 03:48:18;;;;;;;0.50;0.50;;;13.40;72.00;;;;;;5073479;28;20491;-69
2023/12/24 03:50:43;;;;;;;0.50;0.50;;;13.40;72.10;;;;;;5073721;28;20052;-70
2023/12/24 03:53:09;;;;;;;0.40;0.40;;;13.40;72.10;;;;;;5073677;28;20045;-69
2023/12/24 03:55:34;;;;;;;0.45;0.45;;;13.40;72.20;;;;;;5073344;28;20025;-70
2023/12/24 03:58:00;;;;;;;0.40;0.40;;;13.30;72.20;;;;;;5073228;28;20119;-69
2023/12/24 04:00:25;;;;;;;0.50;0.50;;;13.30;72.10;;;;;;5073163;28;20472;-69
2023/12/24 04:02:54;;;;;;;0.63;0.63;;;13.30;72.20;;;;;;5073099;28;20045;-69
2023/12/24 04:05:19;;;;;;;1.20;1.10;;;13.30;72.30;;;;;;5073057;28;20027;-68
2023/12/24 04:07:45;;;;;;;0.30;0.30;;;13.30;72.20;;;;;;5073099;28;20029;-71
2023/12/24 04:10:10;;;;;;;0.50;0.50;;;13.30;72.20;;;;;;5073312;28;20016;-69
2023/12/24 04:12:36;;;;;;;0.77;0.77;;;13.30;72.30;;;;;;5072881;28;20426;-69
2023/12/24 04:15:01;;;;;;;0.45;0.45;;;13.30;72.40;;;;;;5072957;28;20441;-69
2023/12/24 04:17:27;;;;;;;0.45;0.45;;;13.30;72.30;;;;;;5072760;28;20028;-70
2023/12/24 04:19:52;;;;;;;0.40;0.40;;;13.30;72.30;;;;;;5072929;28;20494;-70
2023/12/24 04:22:18;;;;;;;0.40;0.40;;;13.20;72.30;;;;;;5072530;28;20028;-69
2023/12/24 04:24:43;;;;;;;0.40;0.40;;;13.20;72.30;;;;;;5072962;28;20021;-69
2023/12/24 04:27:10;;;;;;;0.60;0.60;;;13.20;72.30;;;;;;5072532;28;20074;-69
2023/12/24 04:29:36;;;;;;;0.40;0.40;;;13.20;72.40;;;;;;5072563;28;20048;-70
2023/12/24 04:32:01;;;;;;;0.50;0.50;;;13.20;72.40;;;;;;5072557;28;20102;-69
2023/12/24 04:34:27;;;;;;;0.40;0.40;;;13.20;72.40;;;;;;5072869;28;20185;-69
2023/12/24 04:36:53;;;;;;;0.47;0.47;;;13.20;72.50;;;;;;5072572;28;20025;-69
2023/12/24 04:39:19;;;;;;;0.43;0.43;;;13.20;72.50;;;;;;5072679;28;20024;-69
2023/12/24 04:41:44;;;;;;;0.40;0.40;;;13.20;72.50;;;;;;5072528;28;20051;-69
2023/12/24 04:44:10;;;;;;;0.40;0.40;;;13.20;72.50;;;;;;5071434;28;20123;-69
2023/12/24 04:46:43;;;;;;;0.50;0.50;;;13.20;72.50;;;;;;5072202;28;20067;-70
2023/12/24 04:49:09;;;;;;;0.40;0.40;;;13.20;72.50;;;;;;5072623;28;20482;-69
2023/12/24 04:51:35;;;;;;;0.40;0.40;;;13.30;72.50;;;;;;5072193;28;20024;-69
2023/12/24 04:54:00;;;;;;;0.60;0.60;;;13.30;72.60;;;;;;5071988;28;20033;-69
2023/12/24 04:56:26;;;;;;;0.47;0.47;;;13.30;72.70;;;;;;5071905;28;20381;-69
2023/12/24 04:58:53;;;;;;;0.50;0.50;;;13.30;72.50;;;;;;5070810;28;20032;-69
2023/12/24 05:01:18;;;;;;;0.57;0.57;;;13.30;72.50;;;;;;5071849;28;20020;-69
2023/12/24 05:03:44;;;;;;;0.40;0.40;;;13.30;72.50;;;;;;5072501;28;20361;-69
2023/12/24 05:06:10;;;;;;;0.60;0.60;;;13.30;72.50;;;;;;5071918;28;20028;-69
2023/12/24 05:08:35;;;;;;;0.40;0.40;;;13.30;72.40;;;;;;5072049;28;20032;-69
2023/12/24 05:11:05;;;;;;;0.40;0.40;;;13.30;72.50;;;;;;5071898;28;20392;-69
2023/12/24 05:13:31;;;;;;;0.50;0.50;;;13.30;72.60;;;;;;5071952;28;20036;-69
2023/12/24 05:15:56;;;;;;;0.50;0.50;;;13.30;72.60;;;;;;5071774;28;20044;-69
2023/12/24 05:18:22;;;;;;;0.40;0.40;;;13.30;72.60;;;;;;5071806;28;20510;-69
2023/12/24 05:20:47;;;;;;;0.40;0.40;;;13.30;72.50;;;;;;5071720;28;20029;-70
2023/12/24 05:23:13;;;;;;;0.40;0.40;;;13.30;72.60;;;;;;5071937;28;20114;-69
2023/12/24 05:25:38;;;;;;;0.40;0.40;;;13.30;72.70;;;;;;5071868;28;20028;-69
2023/12/24 05:28:04;;;;;;;0.50;0.50;;;13.30;72.60;;;;;;5070478;28;20040;-71
2023/12/24 05:30:29;;;;;;;0.40;0.40;;;13.40;72.60;;;;;;5071573;28;20040;-71
2023/12/24 05:32:55;;;;;;;0.43;0.43;;;13.40;72.50;;;;;;5071593;28;20074;-71
2023/12/24 05:35:20;;;;;;;0.40;0.40;;;13.40;72.70;;;;;;5071440;28;20492;-71
2023/12/24 05:37:46;;;;;;;0.43;0.43;;;13.40;72.70;;;;;;5071480;28;20067;-71
2023/12/24 05:40:12;;;;;;;0.40;0.40;;;13.40;72.70;;;;;;5071578;28;20538;-71
2023/12/24 05:42:38;;;;;;;0.50;0.50;;;13.40;72.70;;;;;;5071442;28;20120;-71
2023/12/24 05:45:04;;;;;;;0.40;0.40;;;13.40;72.60;;;;;;5071364;28;20027;-71
2023/12/24 05:47:29;;;;;;;0.40;0.40;;;13.50;72.60;;;;;;5071315;28;20052;-71
2023/12/24 05:49:55;;;;;;;0.50;0.50;;;13.50;72.70;;;;;;5071293;28;20463;-71
2023/12/24 05:52:20;;;;;;;0.68;0.68;;;13.50;72.70;;;;;;5071188;28;20040;-71
2023/12/24 05:54:46;;;;;;;0.70;0.70;;;13.60;72.80;;;;;;5071394;28;20530;-71
2023/12/24 05:57:11;;;;;;;0.50;0.50;;;13.50;72.70;;;;;;5071469;28;20483;-71
2023/12/24 05:59:37;;;;;;;0.55;0.55;;;13.50;72.70;;;;;;5071368;28;20468;-71
2023/12/24 06:02:03;;;;;;;0.40;0.40;;;13.50;72.70;;;;;;5071130;28;20529;-71
2023/12/24 06:04:28;;;;;;;0.47;0.47;;;13.60;72.90;;;;;;5071610;28;20059;-72
2023/12/24 06:06:54;;;;;;;0.40;0.40;;;13.60;72.80;;;;;;5071085;28;20023;-71
2023/12/24 06:09:19;;;;;;;0.32;0.32;;;13.60;72.80;;;;;;5071529;28;20033;-72
2023/12/24 06:11:45;;;;;;;0.40;0.40;;;13.60;72.90;;;;;;5071432;28;20082;-72
2023/12/24 06:14:10;;;;;;;0.40;0.40;;;13.60;72.90;;;;;;5071629;28;20036;-71
2023/12/24 06:16:36;;;;;;;0.40;0.40;;;13.70;72.90;;;;;;5071130;28;20024;-72
2023/12/24 06:19:01;;;;;;;0.68;0.68;;;13.70;72.80;;;;;;5071462;28;20037;-71
2023/12/24 06:21:26;;;;;;;0.40;0.40;;;13.70;72.80;;;;;;5070891;28;20472;-71
2023/12/24 06:23:52;;;;;;;0.40;0.40;;;13.70;72.90;;;;;;5071369;28;20032;-71
2023/12/24 06:26:18;;;;;;;0.88;0.88;;;13.70;72.90;;;;;;5070905;28;20058;-70
2023/12/24 06:28:43;;;;;;;0.30;0.30;;;13.80;72.80;;;;;;5071626;28;20029;-70
2023/12/24 06:31:09;;;;;;;0.40;0.40;;;13.80;72.90;;;;;;5070888;28;20032;-70
2023/12/24 06:33:35;;;;;;;0.43;0.43;;;13.70;72.90;;;;;;5071183;28;20612;-70
2023/12/24 06:36:00;;;;;;;0.45;0.45;;;13.80;72.90;;;;;;5070991;28;20024;-71
2023/12/24 06:38:26;;;;;;;0.50;0.50;;;13.80;72.90;;;;;;5074727;28;20155;-71
2023/12/24 06:40:51;;;;;;;0.40;0.40;;;13.80;72.80;;;;;;5074671;28;20468;-71
2023/12/24 06:43:17;;;;;;;0.30;0.30;;;13.80;72.90;;;;;;5074872;28;20040;-70
2023/12/24 06:45:43;;;;;;;0.60;0.60;;;13.80;72.90;;;;;;5073674;28;20025;-70
2023/12/24 06:48:10;;;;;;;0.50;0.50;;;13.80;72.90;;;;;;5074846;28;20033;-70
2023/12/24 06:50:35;;;;;;;0.40;0.40;;;13.90;73.00;;;;;;5075127;28;20025;-71
2023/12/24 06:53:01;;;;;;;0.40;0.40;;;13.90;72.90;;;;;;5074646;28;20124;-70
2023/12/24 06:55:26;;;;;;;0.50;0.50;;;14.00;72.90;;;;;;5074161;28;20032;-71
2023/12/24 06:57:52;;;;;;;0.43;0.43;;;14.00;72.90;;;;;;5074449;28;20049;-71
2023/12/24 07:00:18;;;;;;;0.50;0.50;;;14.00;72.90;;;;;;5074368;28;20043;-71
2023/12/24 07:02:43;;;;;;;0.40;0.40;;;14.00;72.90;;;;;;5074555;28;20037;-71
2023/12/24 07:05:09;;;;;;;0.40;0.40;;;14.00;72.90;;;;;;5074250;28;20040;-71
2023/12/24 07:07:34;;;;;;;0.55;0.55;;;14.00;72.80;;;;;;5074263;28;20375;-72
2023/12/24 07:10:00;;;;;;;0.40;0.40;;;14.00;72.80;;;;;;5074438;28;20036;-70
2023/12/24 07:12:27;;;;;;;0.50;0.50;;;14.00;72.90;;;;;;5072790;28;20384;-70
2023/12/24 07:14:53;;;;;;;0.40;0.40;;;14.10;72.80;;;;;;5074007;28;20111;-70
2023/12/24 07:17:18;;;;;;;0.40;0.40;;;14.10;72.90;;;;;;5074080;28;20060;-70
2023/12/24 07:19:44;;;;;;;0.40;0.40;;;14.10;72.90;;;;;;5074206;28;20040;-70
2023/12/24 07:22:09;;;;;;;0.40;0.40;;;14.10;72.90;;;;;;5073799;28;20111;-70
2023/12/24 07:24:36;;;;;;;0.40;0.40;;;14.10;72.90;;;;;;5073763;28;20029;-69
2023/12/24 07:27:01;;;;;;;0.50;0.50;;;14.10;72.90;;;;;;5073961;28;20491;-70
2023/12/24 07:29:26;;;;;;;0.40;0.40;;;14.10;72.80;;;;;;5074148;28;20029;-70
2023/12/24 07:31:52;;;;;;;0.30;0.30;;;14.10;72.90;;;;;;5073735;28;20388;-69
2023/12/24 07:34:18;;;;;;;0.50;0.50;;;14.10;73.00;;;;;;5074217;28;20043;-70
2023/12/24 07:36:44;;;;;;;0.40;0.40;;;14.20;72.90;;;;;;5074042;28;20548;-69
2023/12/24 07:39:10;;;;;;;0.60;0.60;;;14.20;72.90;;;;;;5073964;28;20040;-70
2023/12/24 07:41:35;;;;;;;0.43;0.43;;;14.20;73.00;;;;;;5073481;28;20472;-70
2023/12/24 07:44:01;;;;;;;0.40;0.40;;;14.20;73.00;;;;;;5073888;28;20036;-70
2023/12/24 07:46:26;;;;;;;0.40;0.40;;;14.20;73.00;;;;;;5073390;28;20025;-70
2023/12/24 07:48:52;;;;;;;0.40;0.40;;;14.20;72.90;;;;;;5073119;28;20037;-68
2023/12/24 07:51:17;;;;;;;0.50;0.50;;;14.20;72.90;;;;;;5070683;28;20025;-68
2023/12/24 07:53:43;;;;;;;0.50;0.50;;;14.30;72.90;;;;;;5071403;28;20367;-68
2023/12/24 07:56:08;;;;;;;0.43;0.43;;;14.20;72.90;;;;;;5073283;28;20045;-68
2023/12/24 07:58:34;;;;;;;0.40;0.40;;;14.30;73.00;;;;;;5078870;28;20535;-68
2023/12/24 08:00:59;;;;;;;0.50;0.50;;;14.30;73.00;;;;;;5093558;28;20027;-69
2023/12/24 08:03:25;;;;;;;0.40;0.40;;;14.30;73.00;;;;;;5091497;28;20143;-69
2023/12/24 08:05:51;;;;;;;0.40;0.40;;;14.30;73.00;;;;;;5091802;28;20024;-68
2023/12/24 08:08:16;;;;;;;0.40;0.40;;;14.30;72.80;;;;;;5093546;28;20306;-68
2023/12/24 08:10:42;;;;;;;0.40;0.40;;;14.30;73.00;;;;;;5092250;28;20418;-68
2023/12/24 08:13:07;;;;;;;0.35;0.35;;;14.30;73.00;;;;;;5093386;28;20070;-68
2023/12/24 08:15:33;;;;;;;0.40;0.40;;;14.30;73.00;;;;;;5093150;28;20032;-68
2023/12/24 08:17:58;;;;;;;0.38;0.38;;;14.30;73.10;;;;;;5092999;28;20118;-68
2023/12/24 08:20:24;;;;;;;0.47;0.47;;;14.40;73.00;;;;;;5093078;28;20036;-68
2023/12/24 08:22:49;;;;;;;0.50;0.50;;;14.40;73.00;;;;;;5093189;28;20118;-68
2023/12/24 08:25:15;;;;;;;0.45;0.45;;;14.40;73.00;;;;;;5093029;28;20486;-68
2023/12/24 08:27:41;;;;;;;0.40;0.40;;;14.40;73.00;;;;;;5074734;28;20067;-68
2023/12/24 08:30:08;;;;;;;0.50;0.50;;;14.40;73.00;;;;;;5092823;28;20463;-68
2023/12/24 08:32:34;;;;;;;0.40;0.40;;;14.40;73.00;;;;;;5092820;28;20039;-68
2023/12/24 08:34:59;;;;;;;0.40;0.40;;;14.40;73.00;;;;;;5092753;28;20426;-69
2023/12/24 08:37:25;;;;;;;0.40;0.40;;;14.50;73.00;;;;;;5092608;28;20024;-68
2023/12/24 08:39:50;;;;;;;0.45;0.45;;;14.50;73.00;;;;;;5074540;28;20038;-68
2023/12/24 08:42:16;;;;;;;0.40;0.40;;;14.50;72.90;;;;;;5092652;28;20111;-68
2023/12/24 08:44:41;;;;;;;0.50;0.50;;;14.50;72.90;;;;;;5092733;28;20056;-68
2023/12/24 08:47:07;;;;;;;0.50;0.50;;;14.50;72.90;;;;;;5092527;28;20047;-69
2023/12/24 08:49:32;;;;;;;0.45;0.45;;;14.50;73.00;;;;;;5092803;28;20032;-69
2023/12/24 08:51:58;;;;;;;0.50;0.50;;;14.60;73.00;;;;;;5092744;28;20107;-68
2023/12/24 08:54:24;;;;;;;0.40;0.40;;;14.60;73.00;;;;;;5092640;28;20059;-69
2023/12/24 08:56:50;;;;;;;0.47;0.47;;;14.50;73.00;;;;;;5092315;28;20097;-69
2023/12/24 08:59:15;;;;;;;0.45;0.45;;;14.60;73.10;;;;;;5073858;28;20032;-70
2023/12/24 09:01:41;;;;;;;0.55;0.55;;;14.60;73.10;;;;;;5092266;28;20467;-71
2023/12/24 09:04:07;;;;;;;0.40;0.40;;;14.60;73.10;;;;;;5092595;28;20032;-71
2023/12/24 09:06:32;;;;;;;0.60;0.60;;;14.60;73.00;;;;;;5092135;28;20039;-71
2023/12/24 09:08:58;;;;;;;0.40;0.40;;;14.60;73.00;;;;;;5092429;28;20027;-71
2023/12/24 09:11:23;;;;;;;0.40;0.40;;;14.60;73.00;;;;;;5092125;28;20468;-71
2023/12/24 09:13:49;;;;;;;0.40;0.40;;;14.70;73.00;;;;;;5092609;28;20091;-71
2023/12/24 09:16:14;;;;;;;0.50;0.50;;;14.70;73.10;;;;;;5092245;28;20031;-71
2023/12/24 09:18:40;;;;;;;0.50;0.50;;;14.60;73.20;;;;;;5092561;28;20106;-71
2023/12/24 09:21:05;;;;;;;0.50;0.50;;;14.70;73.20;;;;;;5092013;28;20357;-70
2023/12/24 09:23:31;;;;;;;0.40;0.40;;;14.70;73.00;;;;;;5091966;28;20042;-71
2023/12/24 09:25:56;;;;;;;0.40;0.40;;;14.80;73.10;;;;;;5091975;28;20047;-71
2023/12/24 09:28:22;;;;;;;0.40;0.40;;;14.80;73.10;;;;;;5091863;28;20074;-71
2023/12/24 09:30:47;;;;;;;0.32;0.32;;;14.80;73.20;;;;;;5092097;28;20020;-71
2023/12/24 09:33:13;;;;;;;0.40;0.40;;;14.80;73.00;;;;;;5073861;28;20032;-71
2023/12/24 09:35:38;;;;;;;0.50;0.50;;;14.80;73.00;;;;;;5091741;28;20028;-71
2023/12/24 09:38:04;;;;;;;0.50;0.50;;;14.80;73.10;;;;;;5091814;28;20450;-71
2023/12/24 09:40:29;;;;;;;0.50;0.50;;;14.80;73.00;;;;;;5091539;28;20028;-70
2023/12/24 09:42:55;;;;;;;0.40;0.40;;;14.80;73.10;;;;;;5091754;28;20476;-69
2023/12/24 09:45:21;;;;;;;0.40;0.40;;;14.90;73.20;;;;;;5091513;28;20020;-69
2023/12/24 09:47:47;;;;;;;0.40;0.40;;;14.80;73.00;;;;;;5091924;28;20028;-68
2023/12/24 09:50:12;;;;;;;0.43;0.43;;;14.90;73.00;;;;;;5091653;28;20032;-69
2023/12/24 09:52:39;;;;;;;0.40;0.40;;;14.90;73.10;;;;;;5091592;28;20084;-69
2023/12/24 09:55:05;;;;;;;0.40;0.40;;;14.90;73.00;;;;;;5091375;28;20032;-69
2023/12/24 09:57:30;;;;;;;0.40;0.40;;;14.90;73.10;;;;;;5091468;28;20475;-69
2023/12/24 09:59:56;;;;;;;0.40;0.40;;;14.90;73.10;;;;;;5091544;28;20032;-69
2023/12/24 10:02:21;;;;;;;0.40;0.40;;;14.90;73.10;;;;;;5073198;28;20445;-69
2023/12/24 10:04:47;;;;;;;0.50;0.50;;;15.00;73.00;;;;;;5091647;28;20032;-69
2023/12/24 10:07:12;;;;;;;0.40;0.40;;;14.90;73.10;;;;;;5091253;28;20024;-69
2023/12/24 10:09:49;;;;;;;0.30;0.30;;;15.00;73.00;;;;;;5091628;28;20032;-71
2023/12/24 10:12:15;;;;;;;0.40;0.40;;;14.90;73.00;;;;;;5095006;28;20107;-71
2023/12/24 10:14:48;;;;;;;0.73;0.73;;;14.90;73.10;;;;;;5095522;28;20174;-71
2023/12/24 10:17:13;;;;;;;0.47;0.47;;;15.00;73.20;;;;;;5095393;28;20063;-71
2023/12/24 10:19:39;;;;;;;0.40;0.40;;;15.00;73.00;;;;;;5095351;28;20541;-71
2023/12/24 10:22:08;;;;;;;0.40;0.40;;;15.00;73.10;;;;;;5095278;28;20024;-70
2023/12/24 10:24:37;;;;;;;0.40;0.40;;;15.00;73.20;;;;;;5095226;28;20042;-70
2023/12/24 10:27:15;;;;;;;0.50;0.50;;;15.00;73.10;;;;;;5095292;28;20089;-70
2023/12/24 10:29:41;;;;;;;0.40;0.40;;;15.00;73.20;;;;;;5095262;28;20081;-71
2023/12/24 10:32:10;;;;;;;0.45;0.45;;;15.10;73.10;;;;;;5095178;28;20536;-70
2023/12/24 10:34:37;;;;;;;0.40;0.40;;;15.10;73.10;;;;;;5095089;28;20032;-70
2023/12/24 10:37:21;;;;;;;0.40;0.40;;;15.10;73.00;;;;;;5077331;28;20073;-70
2023/12/24 10:39:49;;;;;;;0.40;0.40;;;15.10;73.20;;;;;;5095204;28;20028;-70
2023/12/24 10:42:15;;;;;;;0.40;0.40;;;15.10;73.20;;;;;;5076890;28;20027;-70
2023/12/24 10:44:40;;;;;;;0.40;0.40;;;15.10;73.10;;;;;;5094997;28;20383;-68
2023/12/24 10:47:07;;;;;;;0.40;0.40;;;15.20;73.10;;;;;;5095088;28;20019;-69
2023/12/24 10:49:33;;;;;;;0.43;0.43;;;15.20;73.20;;;;;;5094897;28;20502;-69
2023/12/24 10:51:59;;;;;;;0.50;0.50;;;15.20;73.10;;;;;;5094708;28;20024;-69
2023/12/24 10:54:26;;;;;;;0.40;0.40;;;15.20;73.10;;;;;;5095041;28;20089;-69
2023/12/24 10:57:11;;;;;;;0.40;0.40;;;15.20;73.00;;;;;;5094613;28;20028;-69
2023/12/24 11:00:06;;;;;;;0.40;0.40;;;15.20;72.90;;;;;;5094750;28;20055;-69
2023/12/24 11:02:42;;;;;;;0.50;0.50;;;15.20;73.00;;;;;;5094529;28;20032;-69
2023/12/24 11:05:08;;;;;;;0.40;0.40;;;15.30;73.00;;;;;;5094603;28;20103;-69
2023/12/24 11:07:34;;;;;;;0.40;0.40;;;15.20;73.00;;;;;;5094533;28;20059;-69
2023/12/24 11:10:05;;;;;;;0.40;0.40;;;15.30;72.90;;;;;;5094413;28;20024;-69
2023/12/24 11:12:39;;;;;;;0.40;0.40;;;15.30;72.90;;;;;;5094382;28;20036;-68
2023/12/24 11:15:08;;;;;;;0.60;0.60;;;15.30;72.90;;;;;;5094460;28;20544;-68
2023/12/24 11:17:33;;;;;;;0.40;0.40;;;15.30;72.80;;;;;;5094348;28;20467;-69
2023/12/24 11:20:24;;;;;;;0.50;0.50;;;15.30;72.90;;;;;;5094444;28;20074;-71
2023/12/24 11:23:04;;;;;;;0.40;0.40;;;15.30;72.90;;;;;;5089842;28;20025;-71
2023/12/24 11:25:39;;;;;;;0.40;0.40;;;15.30;73.00;;;;;;5073931;28;20328;-71
2023/12/24 11:28:07;;;;;;;0.50;0.50;;;15.30;73.00;;;;;;5074252;28;20052;-70
2023/12/24 11:30:51;;;;;;;0.90;0.88;;;15.20;72.90;;;;;;5073748;28;20031;-70
2023/12/24 11:33:47;;;;;;;0.50;0.50;;;15.30;73.00;;;;;;5072645;28;20033;-71
2023/12/24 11:36:14;;;;;;;0.40;0.40;;;15.30;73.10;;;;;;5070506;28;20567;-71
2023/12/24 11:38:41;;;;;;;0.40;0.40;;;15.20;73.00;;;;;;5073762;28;20641;-71
2023/12/24 11:41:18;;;;;;;0.40;0.40;;;15.30;73.00;;;;;;5073656;28;20462;-71
2023/12/24 11:43:56;;;;;;;0.75;0.75;;;15.30;73.00;;;;;;5074072;28;20076;-71
2023/12/24 11:46:23;;;;;;;0.50;0.50;;;15.30;73.00;;;;;;5073585;28;20021;-71
2023/12/24 11:48:48;;;;;;;0.52;0.52;;;15.30;73.00;;;;;;5074058;28;20021;-71
2023/12/24 11:51:14;;;;;;;0.43;0.43;;;15.30;73.00;;;;;;5073650;28;20098;-70
2023/12/24 11:53:41;;;;;;;0.40;0.40;;;15.30;72.90;;;;;;5073674;28;20086;-70
2023/12/24 11:56:14;;;;;;;0.50;0.50;;;15.30;73.10;;;;;;5071941;28;20037;-70
2023/12/24 11:58:50;;;;;;;0.40;0.40;;;15.30;73.00;;;;;;5073602;28;20040;-70
2023/12/24 12:01:28;;;;;;;0.50;0.50;;;15.30;73.20;;;;;;5073224;28;20525;-70
2023/12/24 12:04:00;;;;;;;0.40;0.40;;;15.30;73.00;;;;;;5073119;28;20491;-72
2023/12/24 12:06:29;;;;;;;0.40;0.40;;;15.30;73.00;;;;;;5073159;28;20503;-72
2023/12/24 12:08:56;;;;;;;0.43;0.43;;;15.30;73.00;;;;;;5073374;28;20032;-71
2023/12/24 12:11:21;;;;;;;0.50;0.50;;;15.30;73.00;;;;;;5073029;28;20415;-72
2023/12/24 12:13:47;;;;;;;0.50;0.50;;;15.30;73.10;;;;;;5073119;28;20029;-70
2023/12/24 12:16:13;;;;;;;0.40;0.40;;;15.30;73.10;;;;;;5072977;28;20475;-70
2023/12/24 12:18:39;;;;;;;0.40;0.40;;;15.40;73.10;;;;;;5072831;28;20031;-70
2023/12/24 12:21:04;;;;;;;0.40;0.40;;;15.30;73.00;;;;;;5072860;28;20025;-70
2023/12/24 12:23:30;;;;;;;0.40;0.40;;;15.40;73.00;;;;;;5072905;28;20040;-70
2023/12/24 12:25:56;;;;;;;0.40;0.40;;;15.40;73.10;;;;;;5072845;28;20384;-71
2023/12/24 12:28:21;;;;;;;0.40;0.40;;;15.40;73.10;;;;;;5072802;28;20545;-70
2023/12/24 12:30:47;;;;;;;0.50;0.50;;;15.40;73.10;;;;;;5072819;28;20116;-70
2023/12/24 12:33:12;;;;;;;0.60;0.60;;;15.40;73.10;;;;;;5072429;28;20094;-70
2023/12/24 12:35:38;;;;;;;0.30;0.30;;;15.40;73.00;;;;;;5071540;28;20135;-70
2023/12/24 12:38:03;;;;;;;0.40;0.40;;;15.40;73.00;;;;;;5072535;28;20028;-70
2023/12/24 12:40:29;;;;;;;0.47;0.47;;;15.50;73.10;;;;;;5071030;28;20028;-70
2023/12/24 12:42:55;;;;;;;0.40;0.40;;;15.50;73.10;;;;;;5072512;28;20052;-70
2023/12/24 12:45:21;;;;;;;0.40;0.40;;;15.50;73.10;;;;;;5072395;28;20476;-71